Craigsville, WV

8:16 AM EST on January 25, 2015 (GMT -0500)
Summersville | Change Station
CLOSE
Current Station
Personal Weather Station
Location: Summersville, WV
Elevation: 1932 ft
Nearby Weather Stations
Active Advisory: Special Statement

Elev 1932 ft 38.30 °N, 80.84 °W | Updated 12 minutes ago

Partly Cloudy
Partly Cloudy
27.3 °F
Feels Like 27 °F
N
0.0
Wind Variable Wind from West

Today
High -- | Low -- °F
--% Chance of Precip.
Yesterday
High -- | Low -- °F
Precip. -- in
7:33 AM 5:36 PM
Waxing Crescent, 32% visible
Pressure 29.82 in
Visibility 5.0 miles
Clouds Mostly Cloudy 1900 ft
Windchill 27 °F
Dew Point 27 °F
Humidity 99%
Rainfall 0.00 in
Snow Depth Not available.
UV 0 out of 12
Pollen .10 out of 12
Air Quality Not available.
Flu Activity Not available.
METAR KLWB 251255Z AUTO 00000KT 5SM BR BKN019 M01/M02 A2982 RMK AO2 T10091020

More Conditions Fewer Conditions

Pressure 29.82 in
Visibility 5.0 miles
Clouds Mostly Cloudy 1900 ft
Windchill 27 °F
Dew Point 27 °F
Humidity 99%
Rainfall 0.00 in
Snow Depth Not available.
UV 0 out of 12
Pollen .10 out of 12
Air Quality Not available.
Flu Activity Not available.
METAR KLWB 251255Z AUTO 00000KT 5SM BR BKN019 M01/M02 A2982 RMK AO2 T10091020

More Conditions Fewer Conditions

10-Day Weather Forecast

Almanac

Astronomy

Jan. 25, 2015 Rise Set
Actual Time
Civil Twilight
Nautical Twilight
Astronomical Twilight
Moon
Length of Visible Light
Length of Day
Tomorrow will be .
, % of the Moon is Illuminated

Today's Extremes

State Highs State Lows

Community

WunderPhotos

Upload Photos

1,789,881 photos uploaded!

WunderBlogs® & News

Nearby

Air Quality

  Air Quality AQ Index Pollutant
Not available.

Snow Depth

Station Depth Elevation

Earthquake Activity

City Distance Mag. Time & Date
Minimum magnitude displayed is 2.5.

Coastal Water Temperatures

Place Temperature

Nearby Weather Stations